Time;durP1;ratioP1;P1;durP2;ratioP2;P2;SDS_P1;SDS_P2;PMS_P1;PMS_P2;Temp;Humidity;BMP_temperature;BMP_pressure;BME280_temperature;BME280_humidity;BME280_pressure;Samples;Min_cycle;Max_cycle;Signal;HPM_P1;HPM_P2
2023/07/29 00:01:27;;;;;;;6.68;6.00;;;;;;;;;;5058838;28;20138;-69
2023/07/29 00:03:52;;;;;;;6.85;5.45;;;;;;;;;;5049985;28;20872;-69
2023/07/29 00:06:17;;;;;;;7.13;6.43;;;;;;;;;;5058559;28;20085;-70
2023/07/29 00:08:43;;;;;;;6.50;5.90;;;;;;;;;;5053627;28;20286;-70
2023/07/29 00:11:08;;;;;;;7.47;5.93;;;;;;;;;;5061641;28;21264;-70
2023/07/29 00:13:33;;;;;;;9.40;5.28;;;;;;;;;;5056324;28;20329;-68
2023/07/29 00:15:58;;;;;;;7.83;6.27;;;;;;;;;;5059905;28;20127;-69
2023/07/29 00:18:24;;;;;;;6.88;6.15;;;;;;;;;;5056742;28;20274;-68
2023/07/29 00:20:50;;;;;;;5.72;5.13;;;;;;;;;;5046597;28;20034;-69
2023/07/29 00:23:16;;;;;;;6.07;5.15;;;;;;;;;;5055704;28;20031;-69
2023/07/29 00:25:41;;;;;;;6.68;6.07;;;;;;;;;;5053055;28;20025;-68
2023/07/29 00:28:07;;;;;;;9.50;7.33;;;;;;;;;;5084499;28;20377;-68
2023/07/29 00:30:32;;;;;;;8.15;6.90;;;;;;;;;;5050141;28;20294;-67
2023/07/29 00:32:57;;;;;;;8.05;7.25;;;;;;;;;;5064054;28;20023;-66
2023/07/29 00:35:22;;;;;;;9.33;7.23;;;;;;;;;;5062000;28;20127;-66
2023/07/29 00:37:48;;;;;;;9.43;7.30;;;;;;;;;;5075858;28;20293;-66
2023/07/29 00:40:20;;;;;;;6.85;6.20;;;;;;;;;;5110374;28;20276;-66
2023/07/29 00:42:45;;;;;;;9.20;7.65;;;;;;;;;;5101780;28;20113;-66
2023/07/29 00:45:11;;;;;;;9.00;8.18;;;;;;;;;;5108734;28;20395;-66
2023/07/29 00:47:36;;;;;;;9.68;8.68;;;;;;;;;;5105461;28;20027;-66
2023/07/29 00:50:02;;;;;;;9.70;8.70;;;;;;;;;;5105344;28;20525;-66
2023/07/29 00:52:27;;;;;;;9.35;8.38;;;;;;;;;;5104075;28;20028;-66
2023/07/29 00:54:52;;;;;;;9.57;8.67;;;;;;;;;;5099216;28;20360;-65
2023/07/29 00:57:19;;;;;;;8.05;7.35;;;;;;;;;;5095828;28;20266;-66
2023/07/29 00:59:44;;;;;;;9.63;8.77;;;;;;;;;;5102348;28;20062;-66
2023/07/29 01:02:09;;;;;;;8.95;8.13;;;;;;;;;;5092562;28;20044;-66
2023/07/29 01:04:35;;;;;;;9.85;8.85;;;;;;;;;;5091644;28;20051;-67
2023/07/29 01:07:12;;;;;;;11.87;8.70;;;;;;;;;;5090952;28;20035;-67
2023/07/29 01:09:50;;;;;;;7.95;7.15;;;;;;;;;;5090550;28;20364;-68
2023/07/29 01:12:24;;;;;;;9.20;8.05;;;;;;;;;;5090480;28;20116;-67
2023/07/29 01:15:09;;;;;;;10.63;9.63;;;;;;;;;;5090705;28;20016;-67
2023/07/29 01:17:49;;;;;;;8.77;7.88;;;;;;;;;;5089210;28;20293;-67
2023/07/29 01:20:15;;;;;;;9.68;8.57;;;;;;;;;;5100080;28;20036;-67
2023/07/29 01:22:41;;;;;;;10.50;9.38;;;;;;;;;;5092426;28;20019;-68
2023/07/29 01:25:06;;;;;;;9.52;8.63;;;;;;;;;;5090487;28;20028;-67
2023/07/29 01:27:32;;;;;;;10.52;8.85;;;;;;;;;;5091903;28;20378;-68
2023/07/29 01:29:57;;;;;;;9.38;8.57;;;;;;;;;;5090560;28;20032;-68
2023/07/29 01:32:49;;;;;;;10.30;9.40;;;;;;;;;;5109501;28;20446;-67
2023/07/29 01:35:14;;;;;;;11.27;8.25;;;;;;;;;;5069353;28;20555;-67
2023/07/29 01:37:41;;;;;;;11.37;10.23;;;;;;;;;;5104017;28;20115;-67
2023/07/29 01:40:07;;;;;;;11.35;10.15;;;;;;;;;;5111960;28;20355;-67
2023/07/29 01:42:32;;;;;;;12.50;10.35;;;;;;;;;;5112988;28;20118;-67
2023/07/29 01:44:57;;;;;;;10.93;9.82;;;;;;;;;;5100407;28;20015;-67
2023/07/29 01:47:23;;;;;;;11.68;10.52;;;;;;;;;;5113014;28;20019;-67
2023/07/29 01:49:48;;;;;;;12.70;10.83;;;;;;;;;;5110034;28;20386;-67
2023/07/29 01:52:13;;;;;;;11.02;9.98;;;;;;;;;;5104241;28;20315;-67
2023/07/29 01:54:38;;;;;;;10.63;8.73;;;;;;;;;;5111630;28;20114;-66
2023/07/29 01:57:04;;;;;;;9.17;8.00;;;;;;;;;;5099044;28;20650;-66
2023/07/29 01:59:29;;;;;;;7.75;7.05;;;;;;;;;;5094055;28;20281;-66
2023/07/29 02:01:54;;;;;;;11.70;6.32;;;;;;;;;;5106200;28;20080;-66
2023/07/29 02:04:19;;;;;;;6.83;6.00;;;;;;;;;;5111720;28;20031;-66
2023/07/29 02:06:45;;;;;;;6.23;5.30;;;;;;;;;;5110110;28;20364;-66
2023/07/29 02:09:10;;;;;;;6.88;5.70;;;;;;;;;;5112825;28;20269;-66
2023/07/29 02:11:35;;;;;;;6.27;5.37;;;;;;;;;;5110583;28;20035;-66
2023/07/29 02:14:00;;;;;;;6.28;5.32;;;;;;;;;;5106972;28;20312;-66
2023/07/29 02:16:25;;;;;;;5.90;5.27;;;;;;;;;;5111117;28;20036;-66
2023/07/29 02:18:51;;;;;;;5.70;4.53;;;;;;;;;;5106910;28;20302;-66
2023/07/29 02:21:16;;;;;;;6.75;5.45;;;;;;;;;;5083949;28;20020;-66
2023/07/29 02:23:41;;;;;;;5.43;4.82;;;;;;;;;;5104250;28;20463;-66
2023/07/29 02:26:07;;;;;;;10.27;5.25;;;;;;;;;;5103792;28;20056;-66
2023/07/29 02:28:32;;;;;;;6.80;5.25;;;;;;;;;;5097730;28;20042;-66
2023/07/29 02:31:10;;;;;;;6.77;5.33;;;;;;;;;;5101576;28;20104;-66
2023/07/29 02:33:35;;;;;;;5.90;5.28;;;;;;;;;;5106285;28;20748;-67
2023/07/29 02:36:01;;;;;;;5.90;5.27;;;;;;;;;;5105224;28;20084;-66
2023/07/29 02:38:26;;;;;;;7.00;5.17;;;;;;;;;;5109711;28;20771;-66
2023/07/29 02:40:51;;;;;;;7.33;5.13;;;;;;;;;;5110290;28;20281;-67
2023/07/29 02:43:16;;;;;;;6.38;4.72;;;;;;;;;;5108713;28;20277;-67
2023/07/29 02:45:42;;;;;;;7.73;4.90;;;;;;;;;;5112511;28;20038;-67
2023/07/29 02:48:07;;;;;;;6.17;4.60;;;;;;;;;;5109794;28;20276;-67
2023/07/29 02:50:34;;;;;;;7.53;4.70;;;;;;;;;;5110956;28;20830;-67
2023/07/29 02:53:00;;;;;;;6.40;5.25;;;;;;;;;;5109961;28;20269;-67
2023/07/29 02:55:26;;;;;;;7.22;4.80;;;;;;;;;;5111964;28;20096;-67
2023/07/29 02:57:51;;;;;;;5.60;4.57;;;;;;;;;;5095688;28;20066;-67
2023/07/29 03:00:17;;;;;;;6.10;4.90;;;;;;;;;;5102427;28;20083;-67
2023/07/29 03:02:42;;;;;;;7.18;4.95;;;;;;;;;;5109001;28;20100;-67
2023/07/29 03:05:07;;;;;;;6.23;5.00;;;;;;;;;;5112450;28;20663;-67
2023/07/29 03:07:33;;;;;;;8.35;5.15;;;;;;;;;;5111325;28;20399;-67
2023/07/29 03:09:58;;;;;;;6.72;4.85;;;;;;;;;;5101701;28;20105;-67
2023/07/29 03:12:23;;;;;;;6.67;5.23;;;;;;;;;;5105996;28;20020;-67
2023/07/29 03:14:48;;;;;;;7.27;5.27;;;;;;;;;;5092360;28;20313;-66
2023/07/29 03:17:14;;;;;;;7.93;5.17;;;;;;;;;;5092402;28;20266;-65
2023/07/29 03:19:39;;;;;;;6.88;5.43;;;;;;;;;;5103858;28;20755;-65
2023/07/29 03:22:04;;;;;;;7.03;4.90;;;;;;;;;;5105339;28;20094;-66
2023/07/29 03:24:29;;;;;;;6.50;5.28;;;;;;;;;;5112931;28;20285;-66
2023/07/29 03:26:54;;;;;;;6.00;5.43;;;;;;;;;;5106321;28;20024;-66
2023/07/29 03:29:20;;;;;;;8.73;6.07;;;;;;;;;;5112023;28;20265;-65
2023/07/29 03:31:45;;;;;;;7.30;5.57;;;;;;;;;;5102591;28;20035;-66
2023/07/29 03:34:12;;;;;;;8.77;5.23;;;;;;;;;;5112490;28;20768;-65
2023/07/29 03:36:37;;;;;;;8.00;6.28;;;;;;;;;;5102941;28;20308;-65
2023/07/29 03:39:03;;;;;;;6.90;5.60;;;;;;;;;;5103477;28;20459;-64
2023/07/29 03:41:29;;;;;;;8.13;5.68;;;;;;;;;;5109595;28;20280;-65
2023/07/29 03:43:54;;;;;;;7.05;5.43;;;;;;;;;;5111297;28;20015;-65
2023/07/29 03:46:21;;;;;;;5.50;4.53;;;;;;;;;;5110694;28;20030;-65
2023/07/29 03:48:47;;;;;;;6.32;2.97;;;;;;;;;;5112265;28;20812;-65
2023/07/29 03:51:12;;;;;;;4.97;3.42;;;;;;;;;;5105869;28;20016;-65
2023/07/29 03:53:37;;;;;;;7.53;3.47;;;;;;;;;;5103424;28;20115;-65
2023/07/29 03:56:02;;;;;;;4.43;2.97;;;;;;;;;;5110129;28;20748;-65
2023/07/29 03:58:28;;;;;;;4.80;3.17;;;;;;;;;;5091296;28;20270;-64
2023/07/29 04:00:53;;;;;;;7.00;2.42;;;;;;;;;;5091032;28;20028;-67
2023/07/29 04:03:18;;;;;;;4.07;2.53;;;;;;;;;;5092024;28;20012;-66
2023/07/29 04:05:43;;;;;;;4.10;2.95;;;;;;;;;;5092475;28;20394;-67
2023/07/29 04:08:09;;;;;;;4.65;2.70;;;;;;;;;;5091699;28;20065;-64
2023/07/29 04:10:35;;;;;;;5.53;3.08;;;;;;;;;;5094185;28;20480;-67
2023/07/29 04:13:00;;;;;;;3.47;2.92;;;;;;;;;;5102368;28;20020;-67
2023/07/29 04:15:25;;;;;;;4.43;3.00;;;;;;;;;;5095015;28;20363;-67
2023/07/29 04:17:50;;;;;;;6.35;3.58;;;;;;;;;;5111457;28;20265;-65
2023/07/29 04:20:16;;;;;;;7.78;3.22;;;;;;;;;;5111262;28;20022;-66
2023/07/29 04:22:41;;;;;;;4.38;2.95;;;;;;;;;;5101549;28;20024;-66
2023/07/29 04:25:06;;;;;;;4.38;3.13;;;;;;;;;;5094614;28;20381;-65
2023/07/29 04:27:32;;;;;;;4.93;2.95;;;;;;;;;;5102762;28;20024;-65
2023/07/29 04:29:57;;;;;;;3.58;2.78;;;;;;;;;;5107604;28;20019;-65
2023/07/29 04:32:22;;;;;;;11.23;3.80;;;;;;;;;;5109133;28;20584;-66
2023/07/29 04:34:47;;;;;;;3.87;3.07;;;;;;;;;;5107389;28;20695;-65
2023/07/29 04:37:13;;;;;;;6.40;4.00;;;;;;;;;;5104648;28;20277;-66
2023/07/29 04:39:38;;;;;;;5.90;4.13;;;;;;;;;;5098751;28;20265;-65
2023/07/29 04:42:03;;;;;;;7.90;3.70;;;;;;;;;;5104147;28;20262;-66
2023/07/29 04:44:29;;;;;;;4.90;3.60;;;;;;;;;;5107673;28;20147;-65
2023/07/29 04:46:54;;;;;;;5.10;3.67;;;;;;;;;;5097567;28;20103;-66
2023/07/29 04:49:19;;;;;;;4.75;3.72;;;;;;;;;;5094534;28;20285;-66
2023/07/29 04:51:44;;;;;;;4.85;3.58;;;;;;;;;;5096128;28;20366;-66
2023/07/29 04:54:10;;;;;;;6.83;4.10;;;;;;;;;;5099253;28;20439;-66
2023/07/29 04:56:35;;;;;;;7.82;4.20;;;;;;;;;;5094889;28;20281;-65
2023/07/29 04:59:00;;;;;;;6.25;4.00;;;;;;;;;;5098260;28;20073;-65
2023/07/29 05:01:25;;;;;;;6.70;4.18;;;;;;;;;;5076739;28;20206;-65
2023/07/29 05:03:51;;;;;;;7.97;3.95;;;;;;;;;;5066736;28;20415;-65
2023/07/29 05:06:16;;;;;;;9.82;3.90;;;;;;;;;;5081049;28;20038;-65
2023/07/29 05:08:42;;;;;;;6.17;4.10;;;;;;;;;;5110802;28;20028;-65
2023/07/29 05:11:07;;;;;;;4.90;3.83;;;;;;;;;;5112950;28;20685;-66
2023/07/29 05:13:32;;;;;;;8.37;4.57;;;;;;;;;;5101318;28;20270;-65
2023/07/29 05:15:57;;;;;;;8.17;4.03;;;;;;;;;;5106620;28;20309;-65
2023/07/29 05:18:23;;;;;;;5.47;4.22;;;;;;;;;;5099468;28;20292;-65
2023/07/29 05:20:48;;;;;;;5.47;4.10;;;;;;;;;;5103261;28;20514;-66
2023/07/29 05:23:13;;;;;;;5.75;4.10;;;;;;;;;;5111681;28;20084;-65
2023/07/29 05:25:39;;;;;;;5.50;3.60;;;;;;;;;;5110950;28;20027;-66
2023/07/29 05:28:04;;;;;;;6.57;4.38;;;;;;;;;;5103578;28;20273;-66
2023/07/29 05:30:33;;;;;;;5.22;4.13;;;;;;;;;;5109704;28;20035;-66
2023/07/29 05:32:59;;;;;;;6.75;3.72;;;;;;;;;;5108815;28;20106;-66
2023/07/29 05:35:24;;;;;;;6.57;3.90;;;;;;;;;;5104658;28;20145;-66
2023/07/29 05:37:50;;;;;;;7.37;3.83;;;;;;;;;;5102487;28;20478;-65
2023/07/29 05:40:15;;;;;;;5.38;4.00;;;;;;;;;;5097182;28;20680;-65
2023/07/29 05:42:40;;;;;;;5.47;3.70;;;;;;;;;;5099915;28;20470;-65
2023/07/29 05:45:06;;;;;;;7.97;3.63;;;;;;;;;;5093744;28;20090;-65
2023/07/29 05:47:31;;;;;;;8.10;4.55;;;;;;;;;;5102579;28;20292;-65
2023/07/29 05:49:56;;;;;;;6.53;4.10;;;;;;;;;;5102065;28;20551;-65
2023/07/29 05:52:22;;;;;;;11.48;4.22;;;;;;;;;;5107178;28;20028;-65
2023/07/29 05:54:47;;;;;;;6.70;4.57;;;;;;;;;;5113217;28;20027;-65
2023/07/29 05:57:12;;;;;;;6.57;3.80;;;;;;;;;;5101790;28;20028;-65
2023/07/29 05:59:37;;;;;;;6.35;4.20;;;;;;;;;;5109558;28;20265;-65
2023/07/29 06:02:03;;;;;;;7.35;3.95;;;;;;;;;;5104983;28;20031;-65
2023/07/29 06:04:28;;;;;;;4.40;3.35;;;;;;;;;;5106239;28;20023;-65
2023/07/29 06:06:55;;;;;;;6.60;3.58;;;;;;;;;;5097972;28;20028;-65
2023/07/29 06:09:20;;;;;;;6.70;3.67;;;;;;;;;;5103697;28;20032;-65
2023/07/29 06:11:45;;;;;;;6.97;4.13;;;;;;;;;;5102608;28;20082;-65
2023/07/29 06:14:11;;;;;;;5.40;3.43;;;;;;;;;;5113449;28;20030;-65
2023/07/29 06:16:36;;;;;;;5.87;3.00;;;;;;;;;;5113127;28;20284;-65
2023/07/29 06:19:01;;;;;;;4.40;2.93;;;;;;;;;;5097526;28;20289;-66
2023/07/29 06:21:27;;;;;;;5.60;3.35;;;;;;;;;;5105869;28;20281;-65
2023/07/29 06:23:52;;;;;;;4.75;2.90;;;;;;;;;;5112296;28;20020;-65
2023/07/29 06:26:18;;;;;;;6.35;3.22;;;;;;;;;;5112260;28;20107;-65
2023/07/29 06:28:43;;;;;;;5.55;3.45;;;;;;;;;;5109322;28;20022;-65
2023/07/29 06:31:08;;;;;;;5.13;4.22;;;;;;;;;;5104296;28;20501;-66
2023/07/29 06:33:33;;;;;;;6.07;3.90;;;;;;;;;;5098898;28;20026;-66
2023/07/29 06:35:59;;;;;;;6.17;4.27;;;;;;;;;;5112273;28;20365;-65
2023/07/29 06:38:24;;;;;;;6.90;4.47;;;;;;;;;;5113290;28;20314;-65
2023/07/29 06:40:49;;;;;;;5.97;5.20;;;;;;;;;;5112221;28;20127;-65
2023/07/29 06:43:14;;;;;;;5.95;5.35;;;;;;;;;;5099535;28;20031;-65
2023/07/29 06:45:40;;;;;;;11.83;5.27;;;;;;;;;;5111935;28;20024;-65
2023/07/29 06:48:05;;;;;;;7.95;5.65;;;;;;;;;;5110836;28;20281;-65
2023/07/29 06:50:30;;;;;;;6.78;5.68;;;;;;;;;;5111602;28;20032;-65
2023/07/29 06:52:55;;;;;;;6.07;5.00;;;;;;;;;;5105979;28;20489;-65
2023/07/29 06:55:21;;;;;;;8.07;5.13;;;;;;;;;;5102430;28;20678;-66
2023/07/29 06:57:46;;;;;;;6.20;5.03;;;;;;;;;;5109746;28;20031;-65
2023/07/29 07:00:11;;;;;;;7.37;5.40;;;;;;;;;;5106526;28;20269;-65
2023/07/29 07:02:37;;;;;;;8.77;4.93;;;;;;;;;;5108302;28;20303;-66
2023/07/29 07:05:02;;;;;;;6.63;4.33;;;;;;;;;;5108255;28;20115;-66
2023/07/29 07:07:27;;;;;;;5.57;4.10;;;;;;;;;;5105022;28;20285;-66
2023/07/29 07:09:52;;;;;;;6.17;3.73;;;;;;;;;;5104400;28;20076;-66
2023/07/29 07:12:18;;;;;;;4.10;3.20;;;;;;;;;;5105056;28;20293;-66
2023/07/29 07:14:43;;;;;;;6.32;2.85;;;;;;;;;;5111422;28;20281;-66
2023/07/29 07:17:08;;;;;;;5.03;2.87;;;;;;;;;;5106657;28;20146;-66
2023/07/29 07:19:33;;;;;;;4.55;3.03;;;;;;;;;;5111165;28;20747;-66
2023/07/29 07:21:59;;;;;;;4.43;2.83;;;;;;;;;;5109105;28;20024;-66
2023/07/29 07:24:24;;;;;;;3.93;3.00;;;;;;;;;;5108465;28;20027;-66
2023/07/29 07:26:49;;;;;;;5.80;2.50;;;;;;;;;;5106067;28;20284;-66
2023/07/29 07:29:14;;;;;;;3.37;2.53;;;;;;;;;;5108237;28;20073;-66
2023/07/29 07:31:40;;;;;;;4.35;2.53;;;;;;;;;;5109785;28;20286;-66
2023/07/29 07:34:05;;;;;;;2.55;1.73;;;;;;;;;;5097251;28;20028;-66
2023/07/29 07:36:33;;;;;;;3.53;1.90;;;;;;;;;;5104395;28;20027;-66
2023/07/29 07:38:58;;;;;;;5.38;2.25;;;;;;;;;;5105428;28;20281;-66
2023/07/29 07:41:24;;;;;;;4.40;2.37;;;;;;;;;;5080854;28;20073;-66
2023/07/29 07:43:49;;;;;;;3.40;1.60;;;;;;;;;;5099045;28;20292;-66
2023/07/29 07:46:14;;;;;;;3.40;1.90;;;;;;;;;;5109692;28;20388;-66
2023/07/29 07:48:39;;;;;;;3.27;1.43;;;;;;;;;;5098124;28;20486;-66
2023/07/29 07:51:11;;;;;;;4.38;1.77;;;;;;;;;;5105834;28;20783;-66
2023/07/29 07:53:36;;;;;;;2.75;1.90;;;;;;;;;;5102373;28;20065;-66
2023/07/29 07:56:02;;;;;;;2.50;1.47;;;;;;;;;;5104206;28;20028;-66
2023/07/29 07:58:27;;;;;;;3.60;1.33;;;;;;;;;;5092893;28;20275;-66
2023/07/29 08:01:00;;;;;;;2.40;1.30;;;;;;;;;;5100255;28;20024;-66
2023/07/29 08:03:25;;;;;;;2.55;1.23;;;;;;;;;;5110071;28;20034;-66
2023/07/29 08:05:50;;;;;;;2.70;1.53;;;;;;;;;;5103670;28;20020;-67
2023/07/29 08:08:16;;;;;;;3.50;1.23;;;;;;;;;;5103370;28;20347;-66
2023/07/29 08:10:41;;;;;;;2.75;1.45;;;;;;;;;;5106935;28;20309;-67
2023/07/29 08:13:06;;;;;;;2.72;1.48;;;;;;;;;;5110375;28;20057;-67
2023/07/29 08:15:31;;;;;;;2.27;1.23;;;;;;;;;;5107013;28;20138;-67
2023/07/29 08:17:57;;;;;;;3.00;1.17;;;;;;;;;;5098379;28;20280;-66
2023/07/29 08:20:22;;;;;;;2.67;1.10;;;;;;;;;;5104427;28;20778;-66
2023/07/29 08:22:47;;;;;;;3.50;0.97;;;;;;;;;;5092498;28;20286;-67
2023/07/29 08:25:12;;;;;;;2.20;1.17;;;;;;;;;;5093699;28;20285;-67
2023/07/29 08:27:38;;;;;;;1.42;0.85;;;;;;;;;;5101527;28;20278;-67
2023/07/29 08:30:03;;;;;;;2.80;1.23;;;;;;;;;;5104604;28;20059;-67
2023/07/29 08:32:28;;;;;;;1.52;0.77;;;;;;;;;;5092272;28;20752;-68
2023/07/29 08:34:54;;;;;;;2.00;1.10;;;;;;;;;;5092969;28;20055;-67
2023/07/29 08:37:19;;;;;;;2.50;1.03;;;;;;;;;;5099774;28;20285;-67
2023/07/29 08:39:44;;;;;;;3.33;1.00;;;;;;;;;;5093889;28;20745;-68
2023/07/29 08:42:11;;;;;;;3.40;1.45;;;;;;;;;;5096672;28;20325;-67
2023/07/29 08:44:43;;;;;;;1.95;1.20;;;;;;;;;;5093574;28;20060;-68
2023/07/29 08:47:08;;;;;;;2.42;1.50;;;;;;;;;;5095263;28;20106;-67
2023/07/29 08:49:34;;;;;;;2.95;1.15;;;;;;;;;;5093417;28;20545;-67
2023/07/29 08:51:59;;;;;;;2.65;1.30;;;;;;;;;;5094592;28;20035;-67
2023/07/29 08:54:25;;;;;;;2.33;1.42;;;;;;;;;;5094107;28;20039;-67
2023/07/29 08:56:50;;;;;;;1.83;0.98;;;;;;;;;;5102101;28;20028;-67
2023/07/29 08:59:17;;;;;;;2.43;1.10;;;;;;;;;;5104167;28;20116;-67
2023/07/29 09:01:42;;;;;;;4.20;1.23;;;;;;;;;;5092562;28;20284;-68
2023/07/29 09:04:07;;;;;;;2.70;1.40;;;;;;;;;;5104475;28;20023;-67
2023/07/29 09:06:34;;;;;;;2.50;1.30;;;;;;;;;;5090963;28;20073;-67
2023/07/29 09:09:00;;;;;;;2.45;1.10;;;;;;;;;;5091272;28;20099;-67
2023/07/29 09:11:26;;;;;;;2.85;1.45;;;;;;;;;;5095866;28;20036;-67
2023/07/29 09:13:52;;;;;;;2.47;1.23;;;;;;;;;;5096140;28;20019;-66
2023/07/29 09:16:18;;;;;;;2.83;1.38;;;;;;;;;;5095736;28;20024;-67
2023/07/29 09:18:50;;;;;;;3.10;1.20;;;;;;;;;;5106240;28;20356;-66
2023/07/29 09:21:16;;;;;;;2.40;1.45;;;;;;;;;;5098291;28;20016;-64
2023/07/29 09:23:42;;;;;;;2.60;1.30;;;;;;;;;;5109098;28;20094;-67
2023/07/29 09:26:07;;;;;;;3.00;1.40;;;;;;;;;;5100930;28;20113;-68
2023/07/29 09:28:34;;;;;;;2.75;1.35;;;;;;;;;;5097634;28;20028;-68
2023/07/29 09:31:00;;;;;;;3.33;1.50;;;;;;;;;;5102117;28;20020;-68
2023/07/29 09:33:26;;;;;;;2.45;1.30;;;;;;;;;;5103930;28;20107;-68
2023/07/29 09:35:51;;;;;;;2.42;1.30;;;;;;;;;;5098453;28;20111;-68
2023/07/29 09:38:16;;;;;;;2.38;1.33;;;;;;;;;;5108769;28;20049;-69
2023/07/29 09:40:42;;;;;;;2.50;1.17;;;;;;;;;;5106014;28;20039;-69
2023/07/29 09:43:10;;;;;;;3.00;1.20;;;;;;;;;;5104929;28;20051;-70
2023/07/29 09:45:36;;;;;;;3.80;1.42;;;;;;;;;;5102993;28;20050;-69
2023/07/29 09:48:02;;;;;;;2.40;1.30;;;;;;;;;;5104828;28;20020;-68
2023/07/29 09:50:27;;;;;;;2.22;1.15;;;;;;;;;;5095892;28;20485;-69
2023/07/29 09:52:54;;;;;;;2.30;1.13;;;;;;;;;;5109400;28;20030;-69
2023/07/29 09:55:21;;;;;;;2.38;1.10;;;;;;;;;;5104404;28;20104;-69
2023/07/29 09:57:46;;;;;;;3.55;1.33;;;;;;;;;;5106857;28;20089;-70
2023/07/29 10:00:12;;;;;;;2.42;1.02;;;;;;;;;;5100693;28;20015;-69
2023/07/29 10:02:39;;;;;;;1.83;1.17;;;;;;;;;;5100070;28;20489;-69
2023/07/29 10:05:04;;;;;;;2.63;1.10;;;;;;;;;;5101062;28;20034;-69
2023/07/29 10:07:30;;;;;;;3.45;1.20;;;;;;;;;;5102906;28;20015;-66
2023/07/29 10:09:55;;;;;;;2.28;1.23;;;;;;;;;;5105726;28;20023;-70
2023/07/29 10:12:21;;;;;;;2.20;1.35;;;;;;;;;;5106174;28;20031;-69
2023/07/29 10:14:47;;;;;;;3.92;1.33;;;;;;;;;;5101148;28;20397;-69
2023/07/29 10:17:14;;;;;;;2.25;1.17;;;;;;;;;;5107975;28;20069;-67
2023/07/29 10:19:42;;;;;;;2.33;1.40;;;;;;;;;;5110905;28;20138;-67
2023/07/29 10:22:08;;;;;;;1.85;1.00;;;;;;;;;;5106568;28;20030;-68
2023/07/29 10:24:33;;;;;;;1.70;1.05;;;;;;;;;;5101212;28;20028;-68
2023/07/29 10:26:59;;;;;;;2.30;1.40;;;;;;;;;;5107644;28;20631;-67
2023/07/29 10:29:27;;;;;;;2.45;1.35;;;;;;;;;;5108522;28;20024;-68
2023/07/29 10:31:55;;;;;;;2.42;1.30;;;;;;;;;;5112682;28;20028;-68
2023/07/29 10:34:21;;;;;;;2.13;1.00;;;;;;;;;;5111827;28;20020;-68
2023/07/29 10:36:47;;;;;;;2.90;1.15;;;;;;;;;;5111776;28;20547;-67
2023/07/29 10:39:12;;;;;;;2.47;1.02;;;;;;;;;;5111327;28;20066;-67
2023/07/29 10:41:56;;;;;;;2.13;0.95;;;;;;;;;;5109936;28;20055;-68
2023/07/29 10:44:39;;;;;;;1.70;0.90;;;;;;;;;;5109878;28;20049;-67
2023/07/29 10:47:12;;;;;;;3.70;1.30;;;;;;;;;;5104748;28;20066;-68
2023/07/29 10:49:39;;;;;;;2.85;1.10;;;;;;;;;;5099373;28;20489;-69
2023/07/29 10:52:06;;;;;;;3.53;1.17;;;;;;;;;;5102704;28;20038;-68
2023/07/29 10:54:41;;;;;;;2.70;1.38;;;;;;;;;;5098009;28;20042;-67
2023/07/29 10:57:06;;;;;;;1.65;1.05;;;;;;;;;;5104624;28;20023;-67
2023/07/29 10:59:33;;;;;;;1.70;0.98;;;;;;;;;;5099916;28;20034;-67
2023/07/29 11:01:59;;;;;;;2.08;1.13;;;;;;;;;;5107698;28;20460;-67
2023/07/29 11:04:25;;;;;;;2.20;1.05;;;;;;;;;;5101667;28;20031;-67
2023/07/29 11:07:03;;;;;;;2.03;1.02;;;;;;;;;;5108413;28;20027;-67
2023/07/29 11:09:43;;;;;;;2.42;1.00;;;;;;;;;;5108649;28;20027;-67
2023/07/29 11:12:27;;;;;;;2.38;0.90;;;;;;;;;;5106611;28;20024;-67
2023/07/29 11:14:52;;;;;;;4.27;1.17;;;;;;;;;;5112822;28;20032;-67
2023/07/29 11:17:18;;;;;;;2.13;0.83;;;;;;;;;;5108606;28;20022;-67
2023/07/29 11:19:44;;;;;;;3.13;1.10;;;;;;;;;;5112310;28;20356;-67
2023/07/29 11:22:09;;;;;;;3.33;1.27;;;;;;;;;;5106129;28;20035;-67
2023/07/29 11:24:35;;;;;;;1.97;1.20;;;;;;;;;;5093926;28;20438;-68
2023/07/29 11:27:00;;;;;;;3.10;1.47;;;;;;;;;;5096484;28;20419;-67
2023/07/29 11:29:25;;;;;;;2.50;1.13;;;;;;;;;;5093807;28;20266;-68
2023/07/29 11:31:51;;;;;;;1.37;0.80;;;;;;;;;;5095407;28;20298;-69
2023/07/29 11:34:20;;;;;;;2.47;0.90;;;;;;;;;;5107062;28;20276;-68
2023/07/29 11:36:45;;;;;;;2.40;1.23;;;;;;;;;;5098018;28;20023;-69
2023/07/29 11:39:11;;;;;;;2.22;1.30;;;;;;;;;;5109490;28;20467;-69
2023/07/29 11:41:36;;;;;;;2.20;1.10;;;;;;;;;;5106878;28;20024;-67
2023/07/29 11:44:02;;;;;;;2.35;1.00;;;;;;;;;;5106431;28;20463;-68
2023/07/29 11:46:27;;;;;;;2.45;1.05;;;;;;;;;;5104506;28;20530;-66
2023/07/29 11:48:54;;;;;;;2.45;1.30;;;;;;;;;;5100213;28;20056;-66
2023/07/29 11:51:19;;;;;;;2.65;1.50;;;;;;;;;;5109883;28;20047;-68
2023/07/29 11:53:44;;;;;;;3.50;1.38;;;;;;;;;;5110183;28;20641;-67
2023/07/29 11:56:10;;;;;;;2.10;1.40;;;;;;;;;;5109907;28;20062;-66
2023/07/29 11:58:36;;;;;;;5.53;1.17;;;;;;;;;;5101411;28;20035;-67
2023/07/29 12:01:03;;;;;;;3.75;1.58;;;;;;;;;;5106398;28;20474;-68
2023/07/29 12:03:28;;;;;;;2.45;1.40;;;;;;;;;;5105183;28;20065;-65
2023/07/29 12:05:54;;;;;;;2.17;1.42;;;;;;;;;;5110119;28;20035;-67
2023/07/29 12:08:19;;;;;;;2.42;1.60;;;;;;;;;;5100037;28;20583;-67
2023/07/29 12:10:44;;;;;;;2.53;1.70;;;;;;;;;;5095580;28;20054;-67
2023/07/29 12:13:10;;;;;;;3.38;1.77;;;;;;;;;;5111744;28;20097;-67
2023/07/29 12:15:37;;;;;;;5.53;2.10;;;;;;;;;;5111392;28;20072;-67
2023/07/29 12:18:03;;;;;;;3.38;1.73;;;;;;;;;;5109629;28;20020;-67
2023/07/29 12:20:29;;;;;;;3.10;1.77;;;;;;;;;;5091619;28;20028;-67
2023/07/29 12:22:58;;;;;;;2.95;1.90;;;;;;;;;;5090895;28;20389;-67
2023/07/29 12:25:24;;;;;;;5.15;2.00;;;;;;;;;;5093493;28;20102;-67
2023/07/29 12:27:49;;;;;;;2.78;1.90;;;;;;;;;;5102208;28;20115;-67
2023/07/29 12:30:15;;;;;;;3.28;2.00;;;;;;;;;;5109667;28;20019;-67
2023/07/29 12:32:46;;;;;;;3.22;2.05;;;;;;;;;;5105807;28;20077;-67
2023/07/29 12:35:12;;;;;;;3.75;2.03;;;;;;;;;;5096580;28;20050;-67
2023/07/29 12:37:38;;;;;;;3.00;1.70;;;;;;;;;;5106006;28;20055;-67
2023/07/29 12:40:04;;;;;;;4.05;2.38;;;;;;;;;;5091449;28;20095;-67
2023/07/29 12:42:29;;;;;;;3.40;2.08;;;;;;;;;;5094098;28;20837;-67
2023/07/29 12:44:54;;;;;;;4.90;2.20;;;;;;;;;;5097362;28;20064;-67
2023/07/29 12:47:20;;;;;;;3.13;2.07;;;;;;;;;;5108030;28;20399;-67
2023/07/29 12:49:45;;;;;;;5.07;2.70;;;;;;;;;;5091118;28;20316;-69
2023/07/29 12:52:10;;;;;;;6.23;2.20;;;;;;;;;;5091926;28;20760;-65
2023/07/29 12:54:35;;;;;;;3.72;2.15;;;;;;;;;;5093940;28;20629;-64
2023/07/29 12:57:00;;;;;;;3.57;1.83;;;;;;;;;;5091655;28;20024;-64
2023/07/29 12:59:26;;;;;;;3.72;2.05;;;;;;;;;;5107761;28;20296;-65
2023/07/29 13:01:51;;;;;;;3.13;1.58;;;;;;;;;;5109041;28;20094;-65
2023/07/29 13:04:16;;;;;;;4.75;1.95;;;;;;;;;;5107375;28;20036;-65
2023/07/29 13:06:42;;;;;;;4.50;2.42;;;;;;;;;;5109099;28;20047;-65
2023/07/29 13:09:07;;;;;;;3.00;2.10;;;;;;;;;;5106893;28;20069;-65
2023/07/29 13:11:32;;;;;;;2.88;1.67;;;;;;;;;;5100899;28;20288;-65
2023/07/29 13:13:58;;;;;;;3.15;1.88;;;;;;;;;;5095003;28;20169;-66
2023/07/29 13:16:23;;;;;;;3.13;1.70;;;;;;;;;;5101165;28;20042;-65
2023/07/29 13:18:48;;;;;;;2.83;1.60;;;;;;;;;;5104938;28;20027;-66
2023/07/29 13:21:13;;;;;;;2.57;1.57;;;;;;;;;;5090826;28;20298;-66
2023/07/29 13:23:39;;;;;;;2.93;1.50;;;;;;;;;;5100426;28;20269;-65
2023/07/29 13:26:04;;;;;;;3.60;1.80;;;;;;;;;;5091677;28;20270;-65
2023/07/29 13:28:29;;;;;;;2.55;1.55;;;;;;;;;;5094525;28;20360;-66
2023/07/29 13:30:54;;;;;;;2.95;1.88;;;;;;;;;;5092323;28;20082;-66
2023/07/29 13:33:20;;;;;;;3.88;2.40;;;;;;;;;;5101358;28;20019;-66
2023/07/29 13:35:45;;;;;;;3.97;2.25;;;;;;;;;;5103249;28;20047;-69
2023/07/29 13:38:11;;;;;;;5.07;2.47;;;;;;;;;;5109771;28;20020;-66
2023/07/29 13:40:36;;;;;;;2.70;2.10;;;;;;;;;;5096822;28;20365;-65
2023/07/29 13:43:01;;;;;;;2.80;2.10;;;;;;;;;;5099218;28;20478;-66
2023/07/29 13:45:26;;;;;;;2.70;1.90;;;;;;;;;;5096737;28;20121;-65
2023/07/29 13:47:52;;;;;;;3.42;2.30;;;;;;;;;;5099271;28;20019;-65
2023/07/29 13:50:20;;;;;;;4.53;1.88;;;;;;;;;;5105851;28;20092;-65
2023/07/29 13:52:45;;;;;;;3.25;2.40;;;;;;;;;;5100273;28;20065;-66
2023/07/29 13:55:11;;;;;;;4.25;2.40;;;;;;;;;;5105475;28;20024;-65
2023/07/29 13:57:36;;;;;;;4.28;2.25;;;;;;;;;;5095249;28;20101;-65
2023/07/29 14:00:02;;;;;;;6.50;2.67;;;;;;;;;;5113036;28;20086;-65
2023/07/29 14:02:28;;;;;;;4.60;2.50;;;;;;;;;;5099585;28;20118;-65
2023/07/29 14:04:53;;;;;;;3.90;2.47;;;;;;;;;;5102244;28;20041;-65
2023/07/29 14:07:18;;;;;;;4.95;3.65;;;;;;;;;;5108808;28;20062;-70
2023/07/29 14:09:44;;;;;;;4.23;3.47;;;;;;;;;;5101304;28;20028;-64
2023/07/29 14:12:14;;;;;;;4.70;4.10;;;;;;;;;;5093329;28;20364;-65
2023/07/29 14:14:39;;;;;;;5.15;3.83;;;;;;;;;;5104354;28;20266;-65
2023/07/29 14:17:05;;;;;;;4.28;3.60;;;;;;;;;;5109680;28;20012;-65
2023/07/29 14:19:33;;;;;;;4.78;3.22;;;;;;;;;;5100144;28;20030;-67
2023/07/29 14:21:58;;;;;;;4.88;2.72;;;;;;;;;;5107113;28;20099;-65
2023/07/29 14:24:24;;;;;;;3.87;2.57;;;;;;;;;;5101648;28;20620;-65
2023/07/29 14:26:49;;;;;;;2.83;2.30;;;;;;;;;;5058040;28;20577;-63
2023/07/29 14:29:14;;;;;;;3.38;2.45;;;;;;;;;;5058745;28;20076;-63
2023/07/29 14:31:40;;;;;;;3.77;2.30;;;;;;;;;;5059947;28;20825;-64
2023/07/29 14:34:05;;;;;;;3.63;2.30;;;;;;;;;;5070761;28;20331;-65
2023/07/29 14:36:30;;;;;;;2.93;2.10;;;;;;;;;;5112396;28;20339;-64